sensor_id;sensor_type;location;lat;lon;timestamp;pressure;altitude;pressure_sealevel;temperature;humidity
11830;BME280;5972;42.134;24.718;2023-10-19T00:02:45;99916.16;;;10.38;100.00
11830;BME280;5972;42.134;24.718;2023-10-19T00:05:12;99913.53;;;10.29;100.00
11830;BME280;5972;42.134;24.718;2023-10-19T00:07:41;99917.47;;;10.32;100.00
11830;BME280;5972;42.134;24.718;2023-10-19T00:10:07;99911.63;;;10.30;100.00
11830;BME280;5972;42.134;24.718;2023-10-19T00:12:35;99905.06;;;10.31;100.00
11830;BME280;5972;42.134;24.718;2023-10-19T00:15:02;99897.63;;;10.28;100.00
11830;BME280;5972;42.134;24.718;2023-10-19T00:17:30;99894.13;;;10.27;100.00
11830;BME280;5972;42.134;24.718;2023-10-19T00:19:58;99889.72;;;10.23;100.00
11830;BME280;5972;42.134;24.718;2023-10-19T00:22:47;99886.22;;;10.22;100.00
11830;BME280;5972;42.134;24.718;2023-10-19T00:25:13;99884.19;;;10.19;100.00
11830;BME280;5972;42.134;24.718;2023-10-19T00:27:40;99884.53;;;10.18;100.00
11830;BME280;5972;42.134;24.718;2023-10-19T00:30:08;99874.16;;;10.20;100.00
11830;BME280;5972;42.134;24.718;2023-10-19T00:32:45;99874.81;;;10.17;100.00
11830;BME280;5972;42.134;24.718;2023-10-19T00:35:12;99867.78;;;10.16;100.00
11830;BME280;5972;42.134;24.718;2023-10-19T00:37:55;99861.16;;;10.13;100.00
11830;BME280;5972;42.134;24.718;2023-10-19T00:40:42;99869.59;;;10.12;100.00
11830;BME280;5972;42.134;24.718;2023-10-19T00:43:12;99862.28;;;10.12;100.00
11830;BME280;5972;42.134;24.718;2023-10-19T00:45:43;99869.78;;;10.07;100.00
11830;BME280;5972;42.134;24.718;2023-10-19T00:48:12;99856.47;;;10.01;100.00
11830;BME280;5972;42.134;24.718;2023-10-19T00:50:43;99857.19;;;10.11;100.00
11830;BME280;5972;42.134;24.718;2023-10-19T00:53:14;99854.38;;;10.07;100.00
11830;BME280;5972;42.134;24.718;2023-10-19T00:55:41;99863.38;;;10.11;100.00
11830;BME280;5972;42.134;24.718;2023-10-19T00:58:11;99852.56;;;10.11;100.00
11830;BME280;5972;42.134;24.718;2023-10-19T01:00:44;99859.56;;;10.12;100.00
11830;BME280;5972;42.134;24.718;2023-10-19T01:03:11;99845.66;;;10.01;100.00
11830;BME280;5972;42.134;24.718;2023-10-19T01:05:43;99849.28;;;10.06;100.00
11830;BME280;5972;42.134;24.718;2023-10-19T01:08:15;99851.88;;;10.02;100.00
11830;BME280;5972;42.134;24.718;2023-10-19T01:10:51;99844.63;;;9.94;100.00
11830;BME280;5972;42.134;24.718;2023-10-19T01:13:19;99839.00;;;9.99;100.00
11830;BME280;5972;42.134;24.718;2023-10-19T01:15:53;99837.22;;;10.03;100.00
11830;BME280;5972;42.134;24.718;2023-10-19T01:18:21;99824.56;;;9.95;100.00
11830;BME280;5972;42.134;24.718;2023-10-19T01:20:54;99834.50;;;10.03;100.00
11830;BME280;5972;42.134;24.718;2023-10-19T01:23:23;99838.47;;;10.06;100.00
11830;BME280;5972;42.134;24.718;2023-10-19T01:25:55;99837.22;;;10.03;100.00
11830;BME280;5972;42.134;24.718;2023-10-19T01:28:35;99838.00;;;10.03;100.00
11830;BME280;5972;42.134;24.718;2023-10-19T01:31:11;99834.50;;;10.03;100.00
11830;BME280;5972;42.134;24.718;2023-10-19T01:33:43;99829.56;;;10.05;100.00
11830;BME280;5972;42.134;24.718;2023-10-19T01:36:11;99829.25;;;10.07;100.00
11830;BME280;5972;42.134;24.718;2023-10-19T01:38:39;99839.06;;;10.11;100.00
11830;BME280;5972;42.134;24.718;2023-10-19T01:41:07;99837.47;;;10.10;100.00
11830;BME280;5972;42.134;24.718;2023-10-19T01:43:40;99835.84;;;10.18;100.00
11830;BME280;5972;42.134;24.718;2023-10-19T01:46:08;99837.09;;;10.20;100.00
11830;BME280;5972;42.134;24.718;2023-10-19T01:48:38;99836.88;;;10.25;100.00
11830;BME280;5972;42.134;24.718;2023-10-19T01:51:07;99822.66;;;10.16;100.00
11830;BME280;5972;42.134;24.718;2023-10-19T01:53:37;99815.53;;;10.12;100.00
11830;BME280;5972;42.134;24.718;2023-10-19T01:56:08;99839.56;;;10.25;100.00
11830;BME280;5972;42.134;24.718;2023-10-19T01:58:35;99835.63;;;10.23;100.00
11830;BME280;5972;42.134;24.718;2023-10-19T02:01:03;99814.81;;;10.02;100.00
11830;BME280;5972;42.134;24.718;2023-10-19T02:03:35;99832.22;;;10.14;100.00
11830;BME280;5972;42.134;24.718;2023-10-19T02:06:02;99837.09;;;10.20;100.00
11830;BME280;5972;42.134;24.718;2023-10-19T02:08:37;99835.53;;;10.19;100.00
11830;BME280;5972;42.134;24.718;2023-10-19T02:11:05;99841.88;;;10.15;100.00
11830;BME280;5972;42.134;24.718;2023-10-19T02:13:39;99822.25;;;10.06;100.00
11830;BME280;5972;42.134;24.718;2023-10-19T02:16:06;99834.53;;;10.24;100.00
11830;BME280;5972;42.134;24.718;2023-10-19T02:18:33;99836.09;;;10.25;100.00
11830;BME280;5972;42.134;24.718;2023-10-19T02:21:00;99837.66;;;10.26;100.00
11830;BME280;5972;42.134;24.718;2023-10-19T02:23:28;99844.34;;;10.28;100.00
11830;BME280;5972;42.134;24.718;2023-10-19T02:25:56;99824.81;;;10.23;100.00
11830;BME280;5972;42.134;24.718;2023-10-19T02:28:22;99848.16;;;10.27;100.00
11830;BME280;5972;42.134;24.718;2023-10-19T02:30:56;99834.53;;;10.24;100.00
11830;BME280;5972;42.134;24.718;2023-10-19T02:33:22;99851.91;;;10.35;100.00
11830;BME280;5972;42.134;24.718;2023-10-19T02:35:52;99848.88;;;10.36;100.00
11830;BME280;5972;42.134;24.718;2023-10-19T02:38:22;99850.78;;;10.36;100.00
11830;BME280;5972;42.134;24.718;2023-10-19T02:40:48;99831.81;;;10.24;100.00
11830;BME280;5972;42.134;24.718;2023-10-19T02:43:17;99847.63;;;10.34;100.00
11830;BME280;5972;42.134;24.718;2023-10-19T02:45:43;99852.34;;;10.37;100.00
11830;BME280;5972;42.134;24.718;2023-10-19T02:48:13;99852.34;;;10.37;100.00
11830;BME280;5972;42.134;24.718;2023-10-19T02:50:39;99849.63;;;10.25;100.00
11830;BME280;5972;42.134;24.718;2023-10-19T02:53:06;99856.94;;;10.24;100.00
11830;BME280;5972;42.134;24.718;2023-10-19T02:55:33;99861.47;;;10.32;100.00
11830;BME280;5972;42.134;24.718;2023-10-19T02:57:59;99846.34;;;10.31;100.00
11830;BME280;5972;42.134;24.718;2023-10-19T03:00:27;99854.88;;;10.42;100.00
11830;BME280;5972;42.134;24.718;2023-10-19T03:02:58;99858.34;;;10.42;100.00
11830;BME280;5972;42.134;24.718;2023-10-19T03:05:26;99856.41;;;10.43;100.00
11830;BME280;5972;42.134;24.718;2023-10-19T03:07:52;99852.94;;;10.42;100.00
11830;BME280;5972;42.134;24.718;2023-10-19T03:10:18;99861.97;;;10.47;100.00
11830;BME280;5972;42.134;24.718;2023-10-19T03:12:49;99863.22;;;10.49;100.00
11830;BME280;5972;42.134;24.718;2023-10-19T03:15:16;99853.41;;;10.45;100.00
11830;BME280;5972;42.134;24.718;2023-10-19T03:17:47;99857.94;;;10.53;100.00
11830;BME280;5972;42.134;24.718;2023-10-19T03:20:15;99855.34;;;10.56;100.00
11830;BME280;5972;42.134;24.718;2023-10-19T03:22:43;99865.59;;;10.51;100.00
11830;BME280;5972;42.134;24.718;2023-10-19T03:25:13;99866.97;;;10.57;100.00
11830;BME280;5972;42.134;24.718;2023-10-19T03:27:54;99860.28;;;10.54;100.00
11830;BME280;5972;42.134;24.718;2023-10-19T03:30:21;99866.25;;;10.48;100.00
11830;BME280;5972;42.134;24.718;2023-10-19T03:32:52;99859.16;;;10.55;100.00
11830;BME280;5972;42.134;24.718;2023-10-19T03:35:19;99859.31;;;10.59;100.00
11830;BME280;5972;42.134;24.718;2023-10-19T03:37:46;99859.63;;;10.57;100.00
11830;BME280;5972;42.134;24.718;2023-10-19T03:40:17;99863.56;;;10.60;100.00
11830;BME280;5972;42.134;24.718;2023-10-19T03:42:52;99861.53;;;10.57;100.00
11830;BME280;5972;42.134;24.718;2023-10-19T03:45:20;99861.88;;;10.55;100.00
11830;BME280;5972;42.134;24.718;2023-10-19T03:47:52;99862.56;;;10.52;100.00
11830;BME280;5972;42.134;24.718;2023-10-19T03:50:21;99856.56;;;10.47;100.00
11830;BME280;5972;42.134;24.718;2023-10-19T03:52:50;99850.38;;;10.46;100.00
11830;BME280;5972;42.134;24.718;2023-10-19T03:55:17;99845.59;;;10.43;100.00
11830;BME280;5972;42.134;24.718;2023-10-19T03:57:44;99845.97;;;10.41;100.00
11830;BME280;5972;42.134;24.718;2023-10-19T04:00:16;99838.16;;;10.40;100.00
11830;BME280;5972;42.134;24.718;2023-10-19T04:02:44;99845.16;;;10.41;100.00
11830;BME280;5972;42.134;24.718;2023-10-19T04:05:13;99840.41;;;10.38;100.00
11830;BME280;5972;42.134;24.718;2023-10-19T04:07:45;99837.69;;;10.38;100.00
11830;BME280;5972;42.134;24.718;2023-10-19T04:10:15;99844.59;;;10.35;100.00
11830;BME280;5972;42.134;24.718;2023-10-19T04:12:55;99840.03;;;10.27;100.00
11830;BME280;5972;42.134;24.718;2023-10-19T04:15:25;99834.25;;;10.17;100.00
11830;BME280;5972;42.134;24.718;2023-10-19T04:17:52;99844.00;;;10.09;100.00
11830;BME280;5972;42.134;24.718;2023-10-19T04:20:22;99841.66;;;10.08;100.00
11830;BME280;5972;42.134;24.718;2023-10-19T04:23:08;99852.47;;;10.08;100.00
11830;BME280;5972;42.134;24.718;2023-10-19T04:25:39;99843.88;;;10.06;100.00
11830;BME280;5972;42.134;24.718;2023-10-19T04:28:06;99843.28;;;10.00;100.00
11830;BME280;5972;42.134;24.718;2023-10-19T04:30:34;99846.19;;;9.95;100.00
11830;BME280;5972;42.134;24.718;2023-10-19T04:33:03;99843.13;;;9.84;100.00
11830;BME280;5972;42.134;24.718;2023-10-19T04:35:35;99834.16;;;9.72;100.00
11830;BME280;5972;42.134;24.718;2023-10-19T04:38:04;99845.63;;;9.69;100.00
11830;BME280;5972;42.134;24.718;2023-10-19T04:40:33;99841.19;;;9.64;100.00
11830;BME280;5972;42.134;24.718;2023-10-19T04:43:02;99837.28;;;9.53;100.00
11830;BME280;5972;42.134;24.718;2023-10-19T04:45:29;99840.66;;;9.50;100.00
11830;BME280;5972;42.134;24.718;2023-10-19T04:47:56;99840.34;;;9.51;100.00
11830;BME280;5972;42.134;24.718;2023-10-19T04:50:23;99839.88;;;9.49;100.00
11830;BME280;5972;42.134;24.718;2023-10-19T04:52:52;99843.25;;;9.46;100.00
11830;BME280;5972;42.134;24.718;2023-10-19T04:55:18;99846.75;;;9.47;100.00
11830;BME280;5972;42.134;24.718;2023-10-19T04:57:45;99853.38;;;9.49;100.00
11830;BME280;5972;42.134;24.718;2023-10-19T05:00:13;99847.06;;;9.45;100.00
11830;BME280;5972;42.134;24.718;2023-10-19T05:02:41;99854.41;;;9.36;100.00
11830;BME280;5972;42.134;24.718;2023-10-19T05:05:08;99852.38;;;9.33;100.00
11830;BME280;5972;42.134;24.718;2023-10-19T05:07:35;99848.25;;;9.36;100.00
11830;BME280;5972;42.134;24.718;2023-10-19T05:10:04;99855.00;;;9.42;100.00
11830;BME280;5972;42.134;24.718;2023-10-19T05:12:32;99858.47;;;9.51;100.00
11830;BME280;5972;42.134;24.718;2023-10-19T05:14:59;99854.66;;;9.52;100.00
11830;BME280;5972;42.134;24.718;2023-10-19T05:17:25;99858.34;;;9.68;100.00
11830;BME280;5972;42.134;24.718;2023-10-19T05:19:52;99861.44;;;9.79;100.00
11830;BME280;5972;42.134;24.718;2023-10-19T05:22:19;99860.94;;;9.97;100.00
11830;BME280;5972;42.134;24.718;2023-10-19T05:24:47;99862.28;;;10.12;100.00
11830;BME280;5972;42.134;24.718;2023-10-19T05:27:15;99855.28;;;10.11;100.00
11830;BME280;5972;42.134;24.718;2023-10-19T05:29:43;99859.69;;;10.16;100.00
11830;BME280;5972;42.134;24.718;2023-10-19T05:32:10;99867.19;;;10.19;100.00
11830;BME280;5972;42.134;24.718;2023-10-19T05:34:36;99849.81;;;10.20;100.00
11830;BME280;5972;42.134;24.718;2023-10-19T05:37:03;99867.47;;;10.38;100.00
11830;BME280;5972;42.134;24.718;2023-10-19T05:39:31;99871.09;;;10.42;100.00
11830;BME280;5972;42.134;24.718;2023-10-19T05:41:59;99862.34;;;10.57;100.00
11830;BME280;5972;42.134;24.718;2023-10-19T05:44:28;99868.75;;;10.65;100.00
11830;BME280;5972;42.134;24.718;2023-10-19T05:46:56;99877.44;;;10.70;100.00
11830;BME280;5972;42.134;24.718;2023-10-19T05:49:24;99864.63;;;10.79;100.00
11830;BME280;5972;42.134;24.718;2023-10-19T05:51:51;99870.41;;;11.02;100.00
11830;BME280;5972;42.134;24.718;2023-10-19T05:54:17;99873.13;;;11.14;100.00
11830;BME280;5972;42.134;24.718;2023-10-19T05:56:44;99878.09;;;11.24;100.00
11830;BME280;5972;42.134;24.718;2023-10-19T05:59:12;99846.94;;;11.31;100.00
11830;BME280;5972;42.134;24.718;2023-10-19T06:01:41;99871.53;;;12.02;100.00
11830;BME280;5972;42.134;24.718;2023-10-19T06:04:12;99879.13;;;12.68;100.00
11830;BME280;5972;42.134;24.718;2023-10-19T06:06:39;99882.41;;;13.36;100.00
11830;BME280;5972;42.134;24.718;2023-10-19T06:09:06;99892.75;;;14.00;100.00
11830;BME280;5972;42.134;24.718;2023-10-19T06:11:34;99891.97;;;14.38;100.00
11830;BME280;5972;42.134;24.718;2023-10-19T06:14:03;99897.63;;;14.49;100.00
11830;BME280;5972;42.134;24.718;2023-10-19T06:16:32;99867.97;;;14.25;100.00
11830;BME280;5972;42.134;24.718;2023-10-19T06:19:01;99892.34;;;14.79;100.00
11830;BME280;5972;42.134;24.718;2023-10-19T06:21:28;99897.16;;;15.34;100.00
11830;BME280;5972;42.134;24.718;2023-10-19T06:23:57;99892.59;;;16.28;100.00
11830;BME280;5972;42.134;24.718;2023-10-19T06:26:24;99893.19;;;17.25;100.00
11830;BME280;5972;42.134;24.718;2023-10-19T06:28:51;99877.19;;;17.85;93.06
11830;BME280;5972;42.134;24.718;2023-10-19T06:31:22;99882.81;;;18.21;86.95
11830;BME280;5972;42.134;24.718;2023-10-19T06:33:49;99888.38;;;18.42;85.50
11830;BME280;5972;42.134;24.718;2023-10-19T06:36:18;99879.47;;;18.95;80.68
11830;BME280;5972;42.134;24.718;2023-10-19T06:38:45;99877.91;;;19.08;76.72
11830;BME280;5972;42.134;24.718;2023-10-19T06:41:14;99886.53;;;19.21;76.48
11830;BME280;5972;42.134;24.718;2023-10-19T06:43:43;99884.16;;;19.51;73.11
11830;BME280;5972;42.134;24.718;2023-10-19T06:46:10;99881.78;;;19.71;72.27
11830;BME280;5972;42.134;24.718;2023-10-19T06:48:38;99878.88;;;20.13;67.62
11830;BME280;5972;42.134;24.718;2023-10-19T06:51:05;99867.41;;;20.36;65.42
11830;BME280;5972;42.134;24.718;2023-10-19T06:53:33;99879.72;;;20.80;62.35
11830;BME280;5972;42.134;24.718;2023-10-19T06:56:00;99869.63;;;21.14;59.68
11830;BME280;5972;42.134;24.718;2023-10-19T06:58:29;99871.22;;;21.11;59.53
11830;BME280;5972;42.134;24.718;2023-10-19T07:00:56;99879.44;;;21.19;60.45
11830;BME280;5972;42.134;24.718;2023-10-19T07:03:25;99888.38;;;21.33;58.61
11830;BME280;5972;42.134;24.718;2023-10-19T07:06:12;99887.97;;;21.72;56.32
11830;BME280;5972;42.134;24.718;2023-10-19T07:08:41;99882.81;;;21.78;56.37
11830;BME280;5972;42.134;24.718;2023-10-19T07:11:09;99875.22;;;22.23;54.53
11830;BME280;5972;42.134;24.718;2023-10-19T07:13:36;99880.53;;;21.69;55.19
11830;BME280;5972;42.134;24.718;2023-10-19T07:16:03;99875.28;;;20.34;62.04
11830;BME280;5972;42.134;24.718;2023-10-19T07:18:30;99873.53;;;19.67;68.62
11830;BME280;5972;42.134;24.718;2023-10-19T07:20:57;99881.03;;;19.35;73.48
11830;BME280;5972;42.134;24.718;2023-10-19T07:23:28;99875.94;;;19.37;74.41
11830;BME280;5972;42.134;24.718;2023-10-19T07:25:57;99866.53;;;19.27;74.56
11830;BME280;5972;42.134;24.718;2023-10-19T07:28:26;99877.50;;;19.06;77.94
11830;BME280;5972;42.134;24.718;2023-10-19T07:30:53;99867.13;;;20.09;71.47
11830;BME280;5972;42.134;24.718;2023-10-19T07:33:21;99862.47;;;21.27;60.72
11830;BME280;5972;42.134;24.718;2023-10-19T07:35:50;99859.53;;;22.16;54.96
11830;BME280;5972;42.134;24.718;2023-10-19T07:38:21;99863.88;;;22.14;54.59
11830;BME280;5972;42.134;24.718;2023-10-19T07:40:48;99863.56;;;21.37;57.88
11830;BME280;5972;42.134;24.718;2023-10-19T07:43:19;99856.44;;;22.41;54.05
11830;BME280;5972;42.134;24.718;2023-10-19T07:45:47;99861.94;;;23.41;49.00
11830;BME280;5972;42.134;24.718;2023-10-19T07:48:14;99851.31;;;23.63;48.11
11830;BME280;5972;42.134;24.718;2023-10-19T07:50:43;99849.06;;;23.78;47.65
11830;BME280;5972;42.134;24.718;2023-10-19T07:53:10;99853.81;;;23.34;47.15
11830;BME280;5972;42.134;24.718;2023-10-19T07:55:37;99850.97;;;23.61;47.25
11830;BME280;5972;42.134;24.718;2023-10-19T07:58:04;99853.78;;;24.36;45.63
11830;BME280;5972;42.134;24.718;2023-10-19T08:00:33;99850.41;;;24.97;43.83
11830;BME280;5972;42.134;24.718;2023-10-19T08:03:00;99828.72;;;25.41;41.27
11830;BME280;5972;42.134;24.718;2023-10-19T08:05:28;99840.75;;;24.53;43.19
11830;BME280;5972;42.134;24.718;2023-10-19T08:07:55;99850.44;;;24.45;43.35
11830;BME280;5972;42.134;24.718;2023-10-19T08:10:23;99853.78;;;24.89;43.14
11830;BME280;5972;42.134;24.718;2023-10-19T08:12:52;99850.09;;;25.40;42.09
11830;BME280;5972;42.134;24.718;2023-10-19T08:15:20;99847.09;;;25.35;41.51
11830;BME280;5972;42.134;24.718;2023-10-19T08:17:50;99845.03;;;25.22;42.21
11830;BME280;5972;42.134;24.718;2023-10-19T08:20:19;99841.44;;;25.38;41.95
11830;BME280;5972;42.134;24.718;2023-10-19T08:22:49;99825.84;;;25.44;41.52
11830;BME280;5972;42.134;24.718;2023-10-19T08:25:16;99835.75;;;23.73;46.25
11830;BME280;5972;42.134;24.718;2023-10-19T08:27:44;99834.41;;;24.89;44.05
11830;BME280;5972;42.134;24.718;2023-10-19T08:30:14;99824.00;;;25.54;43.13
11830;BME280;5972;42.134;24.718;2023-10-19T08:32:43;99829.16;;;25.97;41.64
11830;BME280;5972;42.134;24.718;2023-10-19T08:35:15;99829.25;;;25.93;41.29
11830;BME280;5972;42.134;24.718;2023-10-19T08:37:44;99825.06;;;26.01;40.49
11830;BME280;5972;42.134;24.718;2023-10-19T08:40:12;99828.31;;;25.26;42.64
11830;BME280;5972;42.134;24.718;2023-10-19T08:42:40;99823.88;;;25.74;41.04
11830;BME280;5972;42.134;24.718;2023-10-19T08:45:08;99824.69;;;25.58;40.75
11830;BME280;5972;42.134;24.718;2023-10-19T08:47:41;99822.25;;;24.14;43.92
11830;BME280;5972;42.134;24.718;2023-10-19T08:50:14;99828.31;;;24.61;44.00
11830;BME280;5972;42.134;24.718;2023-10-19T08:52:41;99824.78;;;25.83;41.18
11830;BME280;5972;42.134;24.718;2023-10-19T08:55:09;99819.63;;;26.11;40.84
11830;BME280;5972;42.134;24.718;2023-10-19T08:57:39;99818.59;;;24.89;42.53
11830;BME280;5972;42.134;24.718;2023-10-19T09:00:07;99812.94;;;24.76;43.62
11830;BME280;5972;42.134;24.718;2023-10-19T09:02:35;99804.19;;;24.46;44.15
11830;BME280;5972;42.134;24.718;2023-10-19T09:05:06;99800.03;;;24.86;43.39
11830;BME280;5972;42.134;24.718;2023-10-19T09:07:34;99792.94;;;23.81;46.25
11830;BME280;5972;42.134;24.718;2023-10-19T09:10:01;99782.72;;;22.72;50.08
11830;BME280;5972;42.134;24.718;2023-10-19T09:12:31;99793.19;;;23.50;47.82
11830;BME280;5972;42.134;24.718;2023-10-19T09:14:58;99790.16;;;24.36;45.41
11830;BME280;5972;42.134;24.718;2023-10-19T09:17:28;99783.38;;;23.66;47.73
11830;BME280;5972;42.134;24.718;2023-10-19T09:19:57;99776.22;;;21.00;56.51
11830;BME280;5972;42.134;24.718;2023-10-19T09:22:25;99773.56;;;19.61;67.91
11830;BME280;5972;42.134;24.718;2023-10-19T09:24:54;99762.63;;;20.82;61.49
11830;BME280;5972;42.134;24.718;2023-10-19T09:27:21;99763.31;;;21.98;57.11
11830;BME280;5972;42.134;24.718;2023-10-19T09:29:49;99759.50;;;22.93;52.24
11830;BME280;5972;42.134;24.718;2023-10-19T09:32:17;99740.72;;;22.61;52.03
11830;BME280;5972;42.134;24.718;2023-10-19T09:34:45;99739.72;;;21.33;59.77
11830;BME280;5972;42.134;24.718;2023-10-19T09:37:14;99760.47;;;19.90;68.04
11830;BME280;5972;42.134;24.718;2023-10-19T09:39:43;99740.97;;;20.88;62.28
11830;BME280;5972;42.134;24.718;2023-10-19T09:42:13;99746.47;;;20.88;61.79
11830;BME280;5972;42.134;24.718;2023-10-19T09:44:44;99741.22;;;21.72;58.17
11830;BME280;5972;42.134;24.718;2023-10-19T09:47:13;99730.09;;;21.48;58.25
11830;BME280;5972;42.134;24.718;2023-10-19T09:49:42;99727.03;;;22.04;54.45
11830;BME280;5972;42.134;24.718;2023-10-19T09:52:10;99721.44;;;22.84;51.49
11830;BME280;5972;42.134;24.718;2023-10-19T09:54:49;99724.88;;;23.11;50.04
11830;BME280;5972;42.134;24.718;2023-10-19T09:57:26;99737.50;;;19.59;66.70
11830;BME280;5972;42.134;24.718;2023-10-19T10:00:01;99727.44;;;19.06;73.79
11830;BME280;5972;42.134;24.718;2023-10-19T10:02:34;99716.91;;;19.96;66.70
11830;BME280;5972;42.134;24.718;2023-10-19T10:05:01;99732.06;;;19.34;72.92
11830;BME280;5972;42.134;24.718;2023-10-19T10:07:30;99707.13;;;18.47;79.56
11830;BME280;5972;42.134;24.718;2023-10-19T10:09:57;99716.38;;;17.61;92.26
11830;BME280;5972;42.134;24.718;2023-10-19T10:12:25;99713.00;;;18.28;87.56
11830;BME280;5972;42.134;24.718;2023-10-19T10:15:00;99709.06;;;17.97;92.23
11830;BME280;5972;42.134;24.718;2023-10-19T10:17:35;99698.09;;;17.97;93.94
11830;BME280;5972;42.134;24.718;2023-10-19T10:20:30;99710.22;;;17.96;92.71
11830;BME280;5972;42.134;24.718;2023-10-19T10:23:17;99718.13;;;18.72;85.94
11830;BME280;5972;42.134;24.718;2023-10-19T10:25:46;99716.44;;;19.17;81.75
11830;BME280;5972;42.134;24.718;2023-10-19T10:28:16;99715.84;;;19.75;75.94
11830;BME280;5972;42.134;24.718;2023-10-19T10:31:12;99707.75;;;20.16;70.88
11830;BME280;5972;42.134;24.718;2023-10-19T10:33:44;99697.44;;;21.50;61.69
11830;BME280;5972;42.134;24.718;2023-10-19T10:36:12;99688.56;;;22.23;55.31
11830;BME280;5972;42.134;24.718;2023-10-19T10:38:39;99696.16;;;22.16;54.62
11830;BME280;5972;42.134;24.718;2023-10-19T10:41:07;99691.81;;;23.47;50.59
11830;BME280;5972;42.134;24.718;2023-10-19T10:43:51;99692.06;;;24.41;46.65
11830;BME280;5972;42.134;24.718;2023-10-19T10:46:18;99680.81;;;24.48;46.04
11830;BME280;5972;42.134;24.718;2023-10-19T10:51:20;99690.72;;;23.41;48.87
11830;BME280;5972;42.134;24.718;2023-10-19T10:53:52;99677.94;;;22.22;53.14
11830;BME280;5972;42.134;24.718;2023-10-19T10:56:20;99673.31;;;21.62;55.75
11830;BME280;5972;42.134;24.718;2023-10-19T10:58:47;99669.88;;;21.20;57.58
11830;BME280;5972;42.134;24.718;2023-10-19T11:01:27;99657.22;;;20.92;59.99
11830;BME280;5972;42.134;24.718;2023-10-19T11:04:05;99649.19;;;21.96;55.45
11830;BME280;5972;42.134;24.718;2023-10-19T11:06:32;99649.09;;;21.46;55.71
11830;BME280;5972;42.134;24.718;2023-10-19T11:09:09;99642.16;;;21.65;54.68
11830;BME280;5972;42.134;24.718;2023-10-19T11:11:37;99641.69;;;21.43;56.68
11830;BME280;5972;42.134;24.718;2023-10-19T11:14:09;99644.97;;;21.34;56.64
11830;BME280;5972;42.134;24.718;2023-10-19T11:16:37;99632.78;;;21.32;57.15
11830;BME280;5972;42.134;24.718;2023-10-19T11:19:05;99628.66;;;21.17;60.01
11830;BME280;5972;42.134;24.718;2023-10-19T11:21:31;99622.63;;;20.91;60.22
11830;BME280;5972;42.134;24.718;2023-10-19T11:23:59;99617.09;;;20.61;59.31
11830;BME280;5972;42.134;24.718;2023-10-19T11:26:27;99609.50;;;19.83;64.32
11830;BME280;5972;42.134;24.718;2023-10-19T11:28:58;99616.03;;;19.37;67.97
11830;BME280;5972;42.134;24.718;2023-10-19T11:31:26;99605.53;;;19.18;69.72
11830;BME280;5972;42.134;24.718;2023-10-19T11:33:55;99599.50;;;18.64;76.25
11830;BME280;5972;42.134;24.718;2023-10-19T11:36:22;99602.53;;;18.91;72.97
11830;BME280;5972;42.134;24.718;2023-10-19T11:38:51;99601.81;;;18.69;75.35
11830;BME280;5972;42.134;24.718;2023-10-19T11:41:18;99594.34;;;18.74;75.06
11830;BME280;5972;42.134;24.718;2023-10-19T11:43:46;99586.56;;;18.51;74.53
11830;BME280;5972;42.134;24.718;2023-10-19T11:46:13;99574.31;;;18.91;74.45
11830;BME280;5972;42.134;24.718;2023-10-19T11:48:41;99581.91;;;18.55;77.67
11830;BME280;5972;42.134;24.718;2023-10-19T11:51:10;99576.69;;;18.85;78.65
11830;BME280;5972;42.134;24.718;2023-10-19T11:53:39;99576.19;;;19.15;73.66
11830;BME280;5972;42.134;24.718;2023-10-19T11:56:07;99558.13;;;19.18;74.07
11830;BME280;5972;42.134;24.718;2023-10-19T11:58:36;99560.81;;;19.32;71.37
11830;BME280;5972;42.134;24.718;2023-10-19T12:01:06;99554.59;;;19.17;74.27
11830;BME280;5972;42.134;24.718;2023-10-19T12:03:34;99557.59;;;19.40;74.02
11830;BME280;5972;42.134;24.718;2023-10-19T12:06:03;99550.53;;;19.46;75.08
11830;BME280;5972;42.134;24.718;2023-10-19T12:08:33;99546.28;;;19.35;76.64
11830;BME280;5972;42.134;24.718;2023-10-19T12:11:01;99553.78;;;19.24;77.27
11830;BME280;5972;42.134;24.718;2023-10-19T12:13:29;99547.66;;;18.95;79.56
11830;BME280;5972;42.134;24.718;2023-10-19T12:15:56;99546.84;;;19.05;80.80
11830;BME280;5972;42.134;24.718;2023-10-19T12:18:23;99542.91;;;19.06;81.43
11830;BME280;5972;42.134;24.718;2023-10-19T12:20:51;99539.91;;;18.79;84.61
11830;BME280;5972;42.134;24.718;2023-10-19T12:23:22;99541.72;;;19.07;82.55
11830;BME280;5972;42.134;24.718;2023-10-19T12:25:50;99540.13;;;19.17;83.83
11830;BME280;5972;42.134;24.718;2023-10-19T12:28:17;99527.25;;;19.10;82.41
11830;BME280;5972;42.134;24.718;2023-10-19T12:30:44;99521.66;;;19.28;79.97
11830;BME280;5972;42.134;24.718;2023-10-19T12:33:11;99528.56;;;18.81;82.67
11830;BME280;5972;42.134;24.718;2023-10-19T12:35:39;99518.72;;;18.94;81.88
11830;BME280;5972;42.134;24.718;2023-10-19T12:38:11;99506.53;;;18.95;82.04
11830;BME280;5972;42.134;24.718;2023-10-19T12:40:45;99514.81;;;18.88;82.95
11830;BME280;5972;42.134;24.718;2023-10-19T12:43:14;99522.97;;;19.05;82.34
11830;BME280;5972;42.134;24.718;2023-10-19T12:45:44;99501.53;;;18.79;84.31
11830;BME280;5972;42.134;24.718;2023-10-19T12:48:16;99497.94;;;18.93;82.91
11830;BME280;5972;42.134;24.718;2023-10-19T12:50:43;99493.22;;;18.97;79.83
11830;BME280;5972;42.134;24.718;2023-10-19T12:53:10;99480.53;;;19.17;80.35
11830;BME280;5972;42.134;24.718;2023-10-19T12:55:37;99479.88;;;19.02;77.15
11830;BME280;5972;42.134;24.718;2023-10-19T12:58:04;99475.22;;;18.92;79.98
11830;BME280;5972;42.134;24.718;2023-10-19T13:00:36;99475.13;;;19.10;78.64
11830;BME280;5972;42.134;24.718;2023-10-19T13:03:07;99465.56;;;19.32;79.89
11830;BME280;5972;42.134;24.718;2023-10-19T13:05:35;99468.22;;;19.39;78.14
11830;BME280;5972;42.134;24.718;2023-10-19T13:08:03;99464.34;;;19.37;78.42
11830;BME280;5972;42.134;24.718;2023-10-19T13:10:33;99463.84;;;19.52;76.78